Flight Track Log - Related Links

Times and Time Zones

All times are in EDT time to prevent confusion due to time zone crossing. See the AAL120 flight status page for this flight to view local times or setup timezone preferences in your user account.

Time Position Orientation Groundspeed Altitude Reporting Facility
EDT Latitude Longitude Course Direction KTS MPH feet Rate Location/Type
Tue 09:11:06 PM 40.6500 -73.7500 88° East 163 188 1,400  Level New York TRACON
Tue 09:12:49 PM 40.6542 -73.6192 107° East 226 260 3,600 1,747 Climbing Boston Center
Tue 09:14:08 PM 40.6182 -73.4680 122° Southeast 302 348 6,700 2,375 Climbing FlightAware ADS-B
Tue 09:14:25 PM 40.6060 -73.4422 123° Southeast 302 348 7,400 2,182 Climbing FlightAware ADS-B
Tue 09:14:41 PM 40.5940 -73.4175 123° Southeast 303 349 7,900 2,063 Climbing FlightAware ADS-B
Tue 09:14:57 PM 40.5816 -73.3921 123° Southeast 306 352 8,500 2,182 Climbing FlightAware ADS-B
Tue 09:15:14 PM 40.5688 -73.3658 123° Southeast 308 354 9,100 2,063 Climbing FlightAware ADS-B
Tue 09:15:29 PM 40.5567 -73.3415 120° Southeast 310 357 9,600 2,000 Climbing FlightAware ADS-B
Tue 09:15:35 PM 40.5528 -73.3327 110° East 312 359 9,800 1,500 Climbing FlightAware ADS-B
Tue 09:15:57 PM 40.5418 -73.2930 94° East 320 368 10,300 1,091 Climbing FlightAware ADS-B
Tue 09:16:08 PM 40.5406 -73.2714 83° East 329 379 10,400 750 Climbing FlightAware ADS-B
Tue 09:16:21 PM 40.5430 -73.2447 79° East 337 388 10,600 955 Climbing FlightAware ADS-B
Tue 09:16:52 PM 40.5524 -73.1813 78° East 359 413 11,100 1,258 Climbing FlightAware ADS-B
Tue 09:17:23 PM 40.5631 -73.1126 79° East 370 426 11,900 1,754 Climbing FlightAware ADS-B
Tue 09:17:57 PM 40.5742 -73.0374 79° East 375 432 13,000 1,811 Climbing FlightAware ADS-B
Tue 09:18:16 PM 40.5804 -72.9952 82° East 380 437 13,500 1,636 Climbing FlightAware ADS-B
Tue 09:18:52 PM 40.5895 -72.9111 82° East 387 445 14,500 1,690 Climbing FlightAware ADS-B
Tue 09:19:27 PM 40.5986 -72.8280 82° East 395 455 15,500 1,579 Climbing FlightAware ADS-B
Tue 09:20:08 PM 40.6096 -72.7300 81° East 405 466 16,500 1,479 Climbing FlightAware ADS-B
Tue 09:20:40 PM 40.6185 -72.6521 81° East 411 473 17,300 1,645 Climbing FlightAware ADS-B
Tue 09:21:10 PM 40.6271 -72.5765 79° East 414 476 18,200 1,478 Climbing FlightAware ADS-B
Tue 09:21:49 PM 40.6394 -72.4892 83° East 402 463 19,000 1,273 Climbing Boston Center
Tue 09:22:49 PM 40.6519 -72.3497 76° East 412 474 20,300 1,300 Climbing Boston Center
Tue 09:23:49 PM 40.6789 -72.2019 82° East 412 474 21,600 1,300 Climbing Boston Center
Tue 09:24:49 PM 40.6950 -72.0406 83° East 425 489 22,900 1,250 Climbing Boston Center
Tue 09:25:49 PM 40.7108 -71.8761 83° East 439 505 24,100 1,300 Climbing Boston Center
Tue 09:26:49 PM 40.7267 -71.7061 82° East 451 519 25,500 1,327 Climbing Boston Center
Tue 09:29:17 PM 40.7694 -71.2758 83° East 490 564 28,700 1,014 Climbing New York Center
Tue 09:30:16 PM 40.7869 -71.0950 83° East 490 564 29,000 151 Climbing New York Center
Tue 09:31:16 PM 40.8039 -70.9169 83° East 490 564 29,000  Level New York Center
Tue 09:32:17 PM 40.8208 -70.7389 83° East 490 564 29,000  Level New York Center
Tue 09:33:16 PM 40.8375 -70.5581 82° East 490 564 29,000  Level New York Center
Tue 09:34:16 PM 40.8558 -70.3850 84° East 490 564 29,000  Level New York Center
Tue 09:35:17 PM 40.8697 -70.1983 83° East 490 564 29,000  Level New York Center
Tue 09:36:15 PM 40.8875 -70.0172 83° East 496 571 29,000  Level New York Center
Tue 09:37:16 PM 40.9031 -69.8386 84° East 496 571 29,000 400 Level New York Center
Tue 09:38:15 PM 40.9181 -69.6572 83° East 496 571 29,800 1,059 Climbing New York Center
Tue 09:39:15 PM 40.9353 -69.4786 85° East 496 571 31,100 1,488 Climbing New York Center
Tue 09:40:16 PM 40.9494 -69.2750 84° East 510 587 32,800 1,328 Climbing New York Center
Tue 09:41:17 PM 40.9639 -69.0933 83° East 499 574 33,800 1,050 Climbing New York Center
Tue 09:42:16 PM 40.9800 -68.9117 83° East 499 574 34,900 600 Climbing New York Center
Tue 09:43:17 PM 40.9958 -68.7325 84° East 499 574 35,000 50 Climbing New York Center
Tue 09:44:17 PM 41.0094 -68.5508 84° East 499 574 35,000 356 Level New York Center
Tue 09:45:15 PM 41.0228 -68.3744 84° East 499 574 35,700 508 Climbing New York Center
Tue 09:46:15 PM 41.0378 -68.1897 85° East 494 568 36,000 150 Climbing New York Center
Tue 09:47:15 PM 41.0483 -68.0103 84° East 494 568 36,000  Level New York Center
Tue 09:48:17 PM 41.0631 -67.8311 85° East 494 568 36,000  Level New York Center
Tue 09:49:18 PM 41.0750 -67.6461 86° East 499 574 36,000  Level New York Center
Tue 09:50:16 PM 41.0847 -67.4614 84° East 504 580 36,000  Level New York Center
Tue 09:51:15 PM 41.1003 -67.2761 85° East 504 580 36,000  Level New York Center
Tue 09:52:15 PM 41.1117 -67.0911 86° East 504 580 36,000  Level New York Center
Tue 09:55:22 PM 41.1167 -67.0000 78° East 504 580 36,000  Level New York Oceanic (ODAPS)
Tue 10:32:16 PM 42.0000 -60.0000 71° East 497 572 36,000  Level New York Oceanic (ODAPS)
Tue 11:29:01 PM 44.0000 -50.0000 63° Northeast 458 527 36,000  Level New York Oceanic (ODAPS)
Tue 11:29:15 PM 44.2404 -49.3271 64° Northeast 497 572 36,000  Level FlightAware Transoceanic
Tue 11:36:15 PM 44.6275 -48.2070 65° Northeast 458 527 36,000  Level FlightAware Transoceanic
Tue 11:37:15 PM 44.6819 -48.0457 65° Northeast 458 527 36,000  Level FlightAware Transoceanic
Tue 11:38:15 PM 44.7361 -47.8842 65° Northeast 458 527 36,000  Level FlightAware Transoceanic
Tue 11:39:15 PM 44.7901 -47.7223 65° Northeast 458 527 36,000  Level FlightAware Transoceanic
Tue 11:40:15 PM 44.8438 -47.5602 65° Northeast 458 527 36,000  Level FlightAware Transoceanic
Tue 11:41:15 PM 44.8973 -47.3977 65° Northeast 458 527 36,000  Level FlightAware Transoceanic
Tue 11:42:15 PM 44.9506 -47.2350 65° Northeast 458 527 36,000  Level FlightAware Transoceanic
Tue 11:43:15 PM 45.0036 -47.0719 65° Northeast 458 527 36,000  Level FlightAware Transoceanic
Tue 11:44:15 PM 45.0564 -46.9086 65° Northeast 458 527 36,000  Level FlightAware Transoceanic
Tue 11:45:15 PM 45.1090 -46.7449 66° East 458 527 36,000  Level FlightAware Transoceanic
Tue 11:46:15 PM 45.1613 -46.5810 66° East 458 527 36,000  Level FlightAware Transoceanic
Tue 11:47:15 PM 45.2134 -46.4167 66° East 458 527 36,000  Level FlightAware Transoceanic
Tue 11:48:15 PM 45.2653 -46.2522 66° East 458 527 36,000  Level FlightAware Transoceanic
Tue 11:49:15 PM 45.3169 -46.0873 66° East 458 527 36,000  Level FlightAware Transoceanic
Tue 11:50:15 PM 45.3683 -45.9221 66° East 458 527 36,000  Level FlightAware Transoceanic
Tue 11:51:15 PM 45.4194 -45.7567 66° East 458 527 36,000  Level FlightAware Transoceanic
Tue 11:52:15 PM 45.4704 -45.5909 66° East 458 527 36,000  Level FlightAware Transoceanic
Tue 11:53:15 PM 45.5210 -45.4249 67° East 458 527 36,000  Level FlightAware Transoceanic
Tue 11:54:15 PM 45.5715 -45.2585 67° East 458 527 36,000  Level FlightAware Transoceanic
Tue 11:55:15 PM 45.6217 -45.0919 67° East 458 527 36,000  Level FlightAware Transoceanic
Tue 11:56:15 PM 45.6716 -44.9249 67° East 458 527 36,000  Level FlightAware Transoceanic
Tue 11:57:15 PM 45.7213 -44.7577 67° East 458 527 36,000  Level FlightAware Transoceanic
Tue 11:58:15 PM 45.7707 -44.5901 67° East 458 527 36,000  Level FlightAware Transoceanic
Tue 11:59:15 PM 45.8200 -44.4223 67° East 458 527 36,000  Level FlightAware Transoceanic
Wed 12:00:15 AM 45.8689 -44.2542 67° East 458 527 36,000  Level FlightAware Transoceanic
Wed 12:01:15 AM 45.9176 -44.0857 67° East 458 527 36,000  Level FlightAware Transoceanic
Wed 12:02:15 AM 45.9661 -43.9170 68° East 458 527 36,000  Level FlightAware Transoceanic
Wed 12:03:15 AM 46.0144 -43.7480 68° East 458 527 36,000  Level FlightAware Transoceanic
Wed 12:04:15 AM 46.0623 -43.5787 68° East 458 527 36,000  Level FlightAware Transoceanic
Wed 12:05:15 AM 46.1101 -43.4091 68° East 458 527 36,000  Level FlightAware Transoceanic
Wed 12:06:15 AM 46.1575 -43.2392 68° East 458 527 36,000  Level FlightAware Transoceanic
Wed 12:07:15 AM 46.2047 -43.0690 68° East 458 527 36,000  Level FlightAware Transoceanic
Wed 12:08:15 AM 46.2517 -42.8985 68° East 458 527 36,000  Level FlightAware Transoceanic
Wed 12:09:15 AM 46.2984 -42.7277 68° East 458 527 36,000  Level FlightAware Transoceanic
Wed 12:10:15 AM 46.3449 -42.5566 69° East 458 527 36,000  Level FlightAware Transoceanic
Wed 12:11:15 AM 46.3911 -42.3853 69° East 458 527 36,000  Level FlightAware Transoceanic
Wed 12:12:15 AM 46.4370 -42.2136 69° East 458 527 36,000  Level FlightAware Transoceanic
Wed 12:13:15 AM 46.4827 -42.0417 69° East 458 527 36,000  Level FlightAware Transoceanic
Wed 12:14:15 AM 46.5281 -41.8694 69° East 458 527 36,000  Level FlightAware Transoceanic
Wed 12:15:15 AM 46.5733 -41.6969 69° East 458 527 36,000  Level FlightAware Transoceanic
Wed 12:16:15 AM 46.6182 -41.5241 69° East 458 527 36,000  Level FlightAware Transoceanic
Wed 12:17:15 AM 46.6629 -41.3510 69° East 458 527 36,000  Level FlightAware Transoceanic
Wed 12:18:15 AM 46.7073 -41.1777 70° East 458 527 36,000  Level FlightAware Transoceanic
Wed 12:19:15 AM 46.7514 -41.0040 70° East 458 527 36,000  Level FlightAware Transoceanic
Wed 12:20:15 AM 46.7953 -40.8301 70° East 458 527 36,000  Level FlightAware Transoceanic
Wed 12:21:15 AM 46.8389 -40.6558 70° East 458 527 36,000  Level FlightAware Transoceanic
Wed 12:22:15 AM 46.8822 -40.4813 70° East 458 527 36,000  Level FlightAware Transoceanic
Wed 12:23:15 AM 46.9253 -40.3065 70° East 458 527 36,000  Level FlightAware Transoceanic
Wed 12:24:15 AM 46.9681 -40.1315 70° East 458 527 36,000  Level FlightAware Transoceanic
Wed 12:25:15 AM 47.0103 -39.9593 70° East 458 527 36,000  Level FlightAware Transoceanic
Wed 12:26:15 AM 47.0512 -39.7965 70° East 458 527 36,000  Level FlightAware Transoceanic
Wed 12:27:15 AM 47.0918 -39.6335 70° East 458 527 36,000  Level FlightAware Transoceanic
Wed 12:28:15 AM 47.1323 -39.4702 70° East 458 527 36,000  Level FlightAware Transoceanic
Wed 12:29:15 AM 47.1725 -39.3066 70° East 458 527 36,000  Level FlightAware Transoceanic
Wed 12:30:15 AM 47.2124 -39.1428 70° East 458 527 36,000  Level FlightAware Transoceanic
Wed 12:31:15 AM 47.2522 -38.9788 70° East 458 527 36,000  Level FlightAware Transoceanic
Wed 12:32:15 AM 47.2917 -38.8145 251° West 458 527 36,000  Level FlightAware Transoceanic
Wed 12:33:00 AM 47.0000 -40.0000 70° East 433 498 36,000  Level ETMS Enhanced Traffic Management System
Wed 01:28:00 AM 49.0000 -30.0000 81° East 407 468 36,000  Level ETMS Enhanced Traffic Management System
Wed 01:28:15 AM 49.0585 -29.4232 79° East  Level FlightAware Approximate
Wed 01:35:15 AM 49.1424 -28.7517 81° East  Level FlightAware Approximate
Wed 01:36:15 AM 49.1616 -28.5728 81° East  Level FlightAware Approximate
Wed 01:37:15 AM 49.1806 -28.3937 81° East  Level FlightAware Approximate
Wed 01:38:15 AM 49.1992 -28.2145 81° East  Level FlightAware Approximate
Wed 01:39:15 AM 49.2177 -28.0352 81° East  Level FlightAware Approximate
Wed 01:40:15 AM 49.2358 -27.8558 81° East  Level FlightAware Approximate
Wed 01:41:15 AM 49.2536 -27.6762 81° East  Level FlightAware Approximate
Wed 01:42:15 AM 49.2712 -27.4965 82° East  Level FlightAware Approximate
Wed 01:43:15 AM 49.2885 -27.3167 82° East  Level FlightAware Approximate
Wed 01:44:15 AM 49.3055 -27.1367 82° East  Level FlightAware Approximate
Wed 01:45:15 AM 49.3223 -26.9566 82° East  Level FlightAware Approximate
Wed 01:46:15 AM 49.3387 -26.7764 82° East  Level FlightAware Approximate
Wed 01:47:15 AM 49.3549 -26.5961 82° East  Level FlightAware Approximate
Wed 01:48:15 AM 49.3708 -26.4157 82° East  Level FlightAware Approximate
Wed 01:49:15 AM 49.3864 -26.2351 83° East  Level FlightAware Approximate
Wed 01:50:15 AM 49.4017 -26.0544 83° East  Level FlightAware Approximate
Wed 01:51:15 AM 49.4168 -25.8736 83° East  Level FlightAware Approximate
Wed 01:52:15 AM 49.4315 -25.6928 83° East  Level FlightAware Approximate
Wed 01:53:15 AM 49.4460 -25.5118 83° East  Level FlightAware Approximate
Wed 01:54:15 AM 49.4602 -25.3307 83° East  Level FlightAware Approximate
Wed 01:55:15 AM 49.4741 -25.1494 83° East  Level FlightAware Approximate
Wed 01:56:15 AM 49.4878 -24.9681 83° East  Level FlightAware Approximate
Wed 01:57:15 AM 49.5011 -24.7867 84° East  Level FlightAware Approximate
Wed 01:58:15 AM 49.5142 -24.6052 84° East  Level FlightAware Approximate
Wed 01:59:15 AM 49.5270 -24.4236 84° East  Level FlightAware Approximate
Wed 02:00:15 AM 49.5395 -24.2419 84° East  Level FlightAware Approximate
Wed 02:01:15 AM 49.5517 -24.0601 84° East  Level FlightAware Approximate
Wed 02:02:15 AM 49.5636 -23.8782 84° East  Level FlightAware Approximate
Wed 02:03:15 AM 49.5752 -23.6963 84° East  Level FlightAware Approximate
Wed 02:04:15 AM 49.5866 -23.5142 85° East  Level FlightAware Approximate
Wed 02:05:15 AM 49.5977 -23.3321 85° East  Level FlightAware Approximate
Wed 02:06:15 AM 49.6085 -23.1499 85° East  Level FlightAware Approximate
Wed 02:07:15 AM 49.6190 -22.9676 85° East  Level FlightAware Approximate
Wed 02:08:15 AM 49.6292 -22.7852 85° East  Level FlightAware Approximate
Wed 02:09:15 AM 49.6391 -22.6027 85° East  Level FlightAware Approximate
Wed 02:10:15 AM 49.6488 -22.4202 85° East  Level FlightAware Approximate
Wed 02:11:15 AM 49.6581 -22.2376 86° East  Level FlightAware Approximate
Wed 02:12:15 AM 49.6672 -22.0549 86° East  Level FlightAware Approximate
Wed 02:13:15 AM 49.6760 -21.8722 86° East  Level FlightAware Approximate
Wed 02:14:15 AM 49.6844 -21.6894 86° East  Level FlightAware Approximate
Wed 02:15:15 AM 49.6926 -21.5065 86° East  Level FlightAware Approximate
Wed 02:16:15 AM 49.7006 -21.3236 86° East  Level FlightAware Approximate
Wed 02:17:15 AM 49.7082 -21.1406 86° East  Level FlightAware Approximate
Wed 02:18:15 AM 49.7155 -20.9576 87° East  Level FlightAware Approximate
Wed 02:19:15 AM 49.7226 -20.7745 87° East  Level FlightAware Approximate
Wed 02:20:15 AM 49.7294 -20.5914 87° East  Level FlightAware Approximate
Wed 02:21:15 AM 49.7358 -20.4082 87° East  Level FlightAware Approximate
Wed 02:22:15 AM 49.7420 -20.2249 87° East  Level FlightAware Approximate
Wed 02:23:15 AM 49.7479 -20.0416 87° East  Level FlightAware Approximate
Wed 02:24:15 AM 49.7535 -19.8583 87° East  Level FlightAware Approximate
Wed 02:25:15 AM 49.7588 -19.6749 88° East  Level FlightAware Approximate
Wed 02:26:15 AM 49.7639 -19.4915 88° East  Level FlightAware Approximate
Wed 02:27:15 AM 49.7686 -19.3081 88° East  Level FlightAware Approximate
Wed 02:28:15 AM 49.7730 -19.1246 88° East  Level FlightAware Approximate
Wed 02:29:15 AM 49.7772 -18.9411 88° East  Level FlightAware Approximate
Wed 02:30:15 AM 49.7811 -18.7575 88° East  Level FlightAware Approximate
Wed 02:31:15 AM 49.7847 -18.5740 88° East  Level FlightAware Approximate
Wed 02:32:15 AM 49.7879 -18.3904 88° East  Level FlightAware Approximate
Wed 02:33:15 AM 49.7910 -18.2067 89° East  Level FlightAware Approximate
Wed 02:34:15 AM 49.7937 -18.0231 89° East  Level FlightAware Approximate
Wed 02:35:15 AM 49.7961 -17.8394 89° East  Level FlightAware Approximate
Wed 02:36:15 AM 49.7982 -17.6558 89° East  Level FlightAware Approximate
Wed 02:37:15 AM 49.8000 -17.4720 89° East  Level FlightAware Approximate
Wed 02:38:15 AM 49.8016 -17.2883 89° East  Level FlightAware Approximate
Wed 02:39:15 AM 49.8029 -17.1046 89° East  Level FlightAware Approximate
Wed 02:40:15 AM 49.8038 -16.9209 90° East  Level FlightAware Approximate
Wed 02:41:15 AM 49.8045 -16.7372 90° East  Level FlightAware Approximate
Wed 02:42:15 AM 49.8049 -16.5534 90° East  Level FlightAware Approximate
Wed 02:43:15 AM 49.8050 -16.3697 90° East  Level FlightAware Approximate
Wed 02:44:15 AM 49.8048 -16.1859 90° East  Level FlightAware Approximate
Wed 02:45:15 AM 49.8043 -16.0022 90° East  Level FlightAware Approximate
Wed 02:46:15 AM 49.8035 -15.8185 90° East  Level FlightAware Approximate
Wed 02:47:15 AM 49.8025 -15.6347 91° East  Level FlightAware Approximate
Wed 02:48:15 AM 49.8011 -15.4510 89° East  Level FlightAware Approximate
Wed 02:49:15 AM 49.8036 -15.2673 89° East  Level FlightAware Approximate
Wed 02:50:15 AM 49.8059 -15.0836 89° East  Level FlightAware Approximate
Wed 02:51:15 AM 49.8078 -14.8999 89° East  Level FlightAware Approximate
Wed 02:52:15 AM 49.8095 -14.7162 89° East  Level FlightAware Approximate
Wed 02:53:15 AM 49.8109 -14.5324 89° East  Level FlightAware Approximate
Wed 02:54:15 AM 49.8119 -14.3486 90° East  Level FlightAware Approximate
Wed 02:55:15 AM 49.8127 -14.1649 90° East  Level FlightAware Approximate
Wed 02:56:15 AM 49.8132 -13.9811 90° East  Level FlightAware Approximate
Wed 02:57:15 AM 49.8134 -13.7973 90° East  Level FlightAware Approximate
Wed 02:58:15 AM 49.8133 -13.6136 90° East  Level FlightAware Approximate
Wed 02:59:15 AM 49.8130 -13.4298 90° East  Level FlightAware Approximate
Wed 03:00:15 AM 49.8123 -13.2460 90° East  Level FlightAware Approximate
Wed 03:01:15 AM 49.8113 -13.0623 91° East  Level FlightAware Approximate
Wed 03:02:15 AM 49.8101 -12.8785 91° East  Level FlightAware Approximate
Wed 03:03:15 AM 49.8085 -12.6948 91° East  Level FlightAware Approximate
Wed 03:04:15 AM 49.8067 -12.5111 91° East  Level FlightAware Approximate
Wed 03:05:15 AM 49.8046 -12.3273 91° East  Level FlightAware Approximate
Wed 03:06:15 AM 49.8022 -12.1436 91° East  Level FlightAware Approximate
Wed 03:07:15 AM 49.7995 -11.9600 91° East  Level FlightAware Approximate
Wed 03:08:15 AM 49.7965 -11.7763 92° East  Level FlightAware Approximate
Wed 03:09:15 AM 49.7932 -11.5927 92° East  Level FlightAware Approximate
Wed 03:10:15 AM 49.7896 -11.4091 92° East  Level FlightAware Approximate
Wed 03:11:15 AM 49.7858 -11.2255 92° East  Level FlightAware Approximate
Wed 03:12:15 AM 49.7816 -11.0419 92° East  Level FlightAware Approximate
Wed 03:13:15 AM 49.7772 -10.8584 92° East  Level FlightAware Approximate
Wed 03:14:15 AM 49.7725 -10.6749 92° East  Level FlightAware Approximate
Wed 03:15:15 AM 49.7674 -10.4915 92° East  Level FlightAware Approximate
Wed 03:16:15 AM 49.7621 -10.3081 93° East  Level FlightAware Approximate
Wed 03:17:15 AM 49.7565 -10.1247 93° East  Level FlightAware Approximate
Wed 03:18:15 AM 49.7506 -9.9414 93° East  Level FlightAware Approximate
Wed 03:19:15 AM 49.7445 -9.7581 93° East  Level FlightAware Approximate
Wed 03:20:15 AM 49.7380 -9.5749 93° East  Level FlightAware Approximate
Wed 03:21:15 AM 49.7312 -9.3917 93° East  Level FlightAware Approximate
Wed 03:22:15 AM 49.7242 -9.2086 93° East  Level FlightAware Approximate
Wed 03:23:15 AM 49.7169 -9.0255 94° East  Level FlightAware Approximate
Wed 03:24:15 AM 49.7092 -8.8425 94° East  Level FlightAware Approximate
Wed 03:25:15 AM 49.7013 -8.6596 94° East  Level FlightAware Approximate
Wed 03:26:15 AM 49.6931 -8.4767 94° East  Level FlightAware Approximate
Wed 03:27:15 AM 49.6846 -8.2938 94° East  Level FlightAware Approximate
Wed 03:28:15 AM 49.6759 -8.1111 94° East  Level FlightAware Approximate
Wed 03:29:15 AM 49.6668 -7.9284 94° East  Level FlightAware Approximate
Wed 03:30:15 AM 49.6575 -7.7457 95° East  Level FlightAware Approximate
Wed 03:31:15 AM 49.6478 -7.5632 95° East  Level FlightAware Approximate
Wed 03:32:15 AM 49.6379 -7.3807 95° East  Level FlightAware Approximate
Wed 03:33:15 AM 49.6277 -7.1983 95° East  Level FlightAware Approximate
Wed 03:34:15 AM 49.6172 -7.0160 92° East  Level FlightAware Approximate
Wed 03:35:15 AM 49.6129 -6.8330 92° East  Level FlightAware Approximate
Wed 03:36:15 AM 49.6084 -6.6502 92° East  Level FlightAware Approximate
Wed 03:37:15 AM 49.6036 -6.4673 92° East  Level FlightAware Approximate
Wed 03:38:15 AM 49.5984 -6.2845 93° East  Level FlightAware Approximate
Wed 03:39:15 AM 49.5930 -6.1018 93° East  Level FlightAware Approximate
Wed 03:40:15 AM 49.5874 -5.9191 93° East  Level FlightAware Approximate
Wed 03:41:15 AM 49.5814 -5.7364 93° East  Level FlightAware Approximate
Wed 03:42:15 AM 49.5751 -5.5537 93° East  Level FlightAware Approximate
Wed 03:43:15 AM 49.5686 -5.3712 93° East  Level FlightAware Approximate
Wed 03:44:15 AM 49.5617 -5.1886 93° East  Level FlightAware Approximate
Wed 03:45:15 AM 49.5546 -5.0061 94° East  Level FlightAware Approximate
Wed 03:46:15 AM 49.5472 -4.8237 94° East  Level FlightAware Approximate
Wed 03:47:15 AM 49.5395 -4.6413 94° East  Level FlightAware Approximate
Wed 03:48:15 AM 49.5315 -4.4590 94° East  Level FlightAware Approximate
Wed 03:49:15 AM 49.5232 -4.2768 94° East  Level FlightAware Approximate
Wed 03:50:15 AM 49.5146 -4.0946 94° East  Level FlightAware Approximate
Wed 03:51:15 AM 49.5058 -3.9125 94° East  Level FlightAware Approximate
Wed 03:52:15 AM 49.4967 -3.7304 94° East  Level FlightAware Approximate
Wed 03:53:15 AM 49.4872 -3.5484 95° East  Level FlightAware Approximate
Wed 03:54:15 AM 49.4775 -3.3665 95° East  Level FlightAware Approximate
Wed 03:55:15 AM 49.4675 -3.1847 95° East  Level FlightAware Approximate
Wed 03:56:15 AM 49.4573 -3.0029 95° East  Level FlightAware Approximate
Wed 03:57:15 AM 49.4467 -2.8212 95° East  Level FlightAware Approximate
Wed 03:58:15 AM 49.4359 -2.6396 95° East  Level FlightAware Approximate
Wed 03:59:15 AM 49.4247 -2.4581 95° East  Level FlightAware Approximate
Wed 04:00:15 AM 49.4133 -2.2766 96° East  Level FlightAware Approximate
Wed 04:01:15 AM 49.4016 -2.0953 96° East  Level FlightAware Approximate
Wed 04:02:15 AM 49.3897 -1.9140 96° East  Level FlightAware Approximate
Wed 04:03:15 AM 49.3774 -1.7328 96° East  Level FlightAware Approximate
Wed 04:04:15 AM 49.3648 -1.5517 96° East  Level FlightAware Approximate
Wed 04:05:15 AM 49.3520 -1.3707 96° East  Level FlightAware Approximate
Wed 04:06:15 AM 49.3389 -1.1898 96° East  Level FlightAware Approximate
Wed 04:07:15 AM 49.3255 -1.0090 121° Southeast  Level FlightAware Approximate
Wed 04:08:15 AM 49.2687 -0.8641 95° East  Level FlightAware Approximate
Wed 04:09:15 AM 49.2574 -0.6852 96° East  Level FlightAware Approximate
Wed 04:10:15 AM 49.2459 -0.5064 69° East  Level FlightAware Approximate
Wed 04:11:15 AM 49.2833 -0.3567 88° East  Level FlightAware Approximate
Wed 04:12:15 AM 49.2865 -0.1771 98° East  Level FlightAware Approximate
Wed 04:13:15 AM 49.2699 0.0009 75° East  Level FlightAware Approximate
Wed 04:14:15 AM 49.3000 0.1737 93° East  Level FlightAware Approximate
Wed 04:15:15 AM 49.2938 0.3527 101° East  Level FlightAware Approximate
Wed 04:16:15 AM 49.2717 0.5293 100° East  Level FlightAware Approximate
Wed 04:17:15 AM 49.2510 0.7061 101° East  Level FlightAware Approximate
Wed 04:18:15 AM 49.2281 0.8823 101° East  Level FlightAware Approximate
Wed 04:19:15 AM 49.2050 1.0583 101° East  Level FlightAware Approximate
Wed 04:20:15 AM 49.1816 1.2342 101° East  Level FlightAware Approximate
Wed 04:21:15 AM 49.1587 1.4101 102° East  Level FlightAware Approximate
Wed 04:22:15 AM 49.1346 1.5856 103° East  Level FlightAware Approximate
Wed 04:23:15 AM 49.1082 1.7601 103° East  Level FlightAware Approximate
Wed 04:24:15 AM 49.0810 1.9343 101° East  Level FlightAware Approximate
Wed 04:25:15 AM 49.0578 2.1098 102° East  Level FlightAware Approximate
Wed 04:26:15 AM 49.0332 2.2843 101° East  Level FlightAware Approximate
Wed 04:27:15 AM 49.0105 2.4598 88° East  Level FlightAware Approximate
Wed 04:28:15 AM 49.0149 2.6385 281° West  Level Estimated
Wed 04:29:15 AM 49.2584 0.6486 101° East  Level FlightAware Approximate
Wed 04:30:15 AM 49.2356 0.8248 101° East  Level FlightAware Approximate
Wed 04:31:15 AM 49.2126 1.0009 101° East  Level FlightAware Approximate
Wed 04:32:15 AM 49.1892 1.1768 102° East  Level FlightAware Approximate
Wed 04:33:15 AM 49.1657 1.3525 102° East  Level FlightAware Approximate
Wed 04:34:15 AM 49.1418 1.5281 102° East  Level FlightAware Approximate
Wed 04:35:15 AM 49.1177 1.7035 102° East  Level FlightAware Approximate
Wed 04:36:15 AM 49.0933 1.8788 102° East  Level FlightAware Approximate
Wed 04:37:15 AM 49.0687 2.0538 102° East  Level FlightAware Approximate
Wed 04:38:15 AM 49.0438 2.2287 102° East  Level FlightAware Approximate
Wed 04:39:15 AM 49.0186 2.4034 102° East  Level FlightAware Approximate
Wed 04:40:15 AM 49.0000 2.5333 41° Northeast  Level FlightAware Approximate
Wed 04:41:15 AM 49.0891 2.6497 41° Northeast  Level Estimated

Login

Don't have an account? Register now (free) for customized features, flight alerts, and more!